Goldboro, Canada
Current Conditions -  °F | °C
As of 10:00 AM on Thursday 23 Oct 2014 (Local Time) from CYPD Reporting Station
Broken Clouds Broken Clouds  
Wind Chill: 11°   Ceiling: 1200
Heat Index: 11°   Visibility: 9mi
Dew Point:   Wind: 20mph
Humidity: 82%   Direction: 70°ENE
Pressure: 30.15"   Gusts: 31mph
Location:  45.18°N, 61.65°W
Report Text: CYPD 231300Z AUTO 07017G27KT 9SM BKN012 11/08 A3015 RMK SLP211
Loading
Personal Weather Stations






























Interactive Weather Map
Tropical Storm Tracking
New forecast layout! Learn more

10-Day Weather Forecast

Advertisements
Track Severe Weather on mobile